Terminal Aerodrome Forecast
Issued by NWS Cleveland, OH

Home | Current Version | Previous Version | Text Only | Print | Product List | Glossary On
Versions: 1 2 3 4 5 6 7 8 9 10 11 12 13 14 15 16 17 18
000
FTUS41 KCLE 181737
TAFMFD
TAF
KMFD 181737Z 1818/1918 25010KT 4SM BR OVC006
      TEMPO 1819/1821 6SM BR OVC010
     FM182100 23006KT P6SM OVC010
     FM190300 21006KT 5SM BR OVC006
     FM191400 21005KT P6SM OVC008
     FM191600 18005KT P6SM SCT010=

USA.gov is the U.S. government's official web portal to all federal, state and local government web resources and services.